sensor_id;sensor_type;location;lat;lon;timestamp;temperature;humidity
22145;DHT22;11238;48.730;11.566;2023-04-03T00:01:16;3.80;99.90
22145;DHT22;11238;48.730;11.566;2023-04-03T00:03:43;3.80;99.90
22145;DHT22;11238;48.730;11.566;2023-04-03T00:06:10;3.80;99.90
22145;DHT22;11238;48.730;11.566;2023-04-03T00:08:38;3.70;99.90
22145;DHT22;11238;48.730;11.566;2023-04-03T00:11:05;3.80;99.90
22145;DHT22;11238;48.730;11.566;2023-04-03T00:13:34;3.80;99.90
22145;DHT22;11238;48.730;11.566;2023-04-03T00:16:00;3.80;99.90
22145;DHT22;11238;48.730;11.566;2023-04-03T00:18:26;3.70;99.90
22145;DHT22;11238;48.730;11.566;2023-04-03T00:20:52;3.70;99.90
22145;DHT22;11238;48.730;11.566;2023-04-03T00:23:17;3.80;99.90
22145;DHT22;11238;48.730;11.566;2023-04-03T00:25:44;3.70;99.90
22145;DHT22;11238;48.730;11.566;2023-04-03T00:28:10;3.70;99.90
22145;DHT22;11238;48.730;11.566;2023-04-03T00:30:36;3.70;99.90
22145;DHT22;11238;48.730;11.566;2023-04-03T00:33:02;3.70;99.90
22145;DHT22;11238;48.730;11.566;2023-04-03T00:35:29;3.70;99.90
22145;DHT22;11238;48.730;11.566;2023-04-03T00:37:56;3.70;99.90
22145;DHT22;11238;48.730;11.566;2023-04-03T00:40:24;3.70;99.90
22145;DHT22;11238;48.730;11.566;2023-04-03T00:42:56;3.70;99.90
22145;DHT22;11238;48.730;11.566;2023-04-03T00:47:58;3.70;99.90
22145;DHT22;11238;48.730;11.566;2023-04-03T00:50:26;3.70;99.90
22145;DHT22;11238;48.730;11.566;2023-04-03T00:52:53;3.70;99.90
22145;DHT22;11238;48.730;11.566;2023-04-03T00:55:19;3.70;99.90
22145;DHT22;11238;48.730;11.566;2023-04-03T00:57:46;3.70;99.90
22145;DHT22;11238;48.730;11.566;2023-04-03T01:00:17;3.70;99.90
22145;DHT22;11238;48.730;11.566;2023-04-03T01:02:44;3.80;99.90
22145;DHT22;11238;48.730;11.566;2023-04-03T01:05:16;3.80;99.90
22145;DHT22;11238;48.730;11.566;2023-04-03T01:07:47;3.70;99.90
22145;DHT22;11238;48.730;11.566;2023-04-03T01:10:15;3.70;99.90
22145;DHT22;11238;48.730;11.566;2023-04-03T01:12:43;3.80;99.90
22145;DHT22;11238;48.730;11.566;2023-04-03T01:15:17;3.80;99.90
22145;DHT22;11238;48.730;11.566;2023-04-03T01:17:46;3.80;99.90
22145;DHT22;11238;48.730;11.566;2023-04-03T01:25:42;3.80;99.90
22145;DHT22;11238;48.730;11.566;2023-04-03T01:28:12;3.70;99.90
22145;DHT22;11238;48.730;11.566;2023-04-03T01:33:33;3.70;99.90
22145;DHT22;11238;48.730;11.566;2023-04-03T01:35:58;3.80;99.90
22145;DHT22;11238;48.730;11.566;2023-04-03T01:38:25;3.80;99.90
22145;DHT22;11238;48.730;11.566;2023-04-03T01:40:51;3.80;99.90
22145;DHT22;11238;48.730;11.566;2023-04-03T01:43:17;3.70;99.90
22145;DHT22;11238;48.730;11.566;2023-04-03T01:45:43;3.70;99.90
22145;DHT22;11238;48.730;11.566;2023-04-03T01:48:09;3.70;99.90
22145;DHT22;11238;48.730;11.566;2023-04-03T01:50:35;3.70;99.90
22145;DHT22;11238;48.730;11.566;2023-04-03T01:53:01;3.70;99.90
22145;DHT22;11238;48.730;11.566;2023-04-03T01:55:27;3.70;99.90
22145;DHT22;11238;48.730;11.566;2023-04-03T01:57:53;3.70;99.90
22145;DHT22;11238;48.730;11.566;2023-04-03T02:00:19;3.70;99.90
22145;DHT22;11238;48.730;11.566;2023-04-03T02:02:45;3.70;99.90
22145;DHT22;11238;48.730;11.566;2023-04-03T02:05:10;3.60;99.90
22145;DHT22;11238;48.730;11.566;2023-04-03T02:07:36;3.70;99.90
22145;DHT22;11238;48.730;11.566;2023-04-03T02:10:02;3.60;99.90
22145;DHT22;11238;48.730;11.566;2023-04-03T02:12:28;3.60;99.90
22145;DHT22;11238;48.730;11.566;2023-04-03T02:14:54;3.50;99.90
22145;DHT22;11238;48.730;11.566;2023-04-03T02:17:21;3.50;99.90
22145;DHT22;11238;48.730;11.566;2023-04-03T02:19:47;3.50;99.90
22145;DHT22;11238;48.730;11.566;2023-04-03T02:22:13;3.50;99.90
22145;DHT22;11238;48.730;11.566;2023-04-03T02:24:39;3.50;99.90
22145;DHT22;11238;48.730;11.566;2023-04-03T02:27:05;3.50;99.90
22145;DHT22;11238;48.730;11.566;2023-04-03T02:29:32;3.50;99.90
22145;DHT22;11238;48.730;11.566;2023-04-03T02:31:57;3.50;99.90
22145;DHT22;11238;48.730;11.566;2023-04-03T02:34:24;3.50;99.90
22145;DHT22;11238;48.730;11.566;2023-04-03T02:36:51;3.60;99.90
22145;DHT22;11238;48.730;11.566;2023-04-03T02:39:18;3.60;99.90
22145;DHT22;11238;48.730;11.566;2023-04-03T02:41:44;3.50;99.90
22145;DHT22;11238;48.730;11.566;2023-04-03T02:44:32;3.60;99.90
22145;DHT22;11238;48.730;11.566;2023-04-03T02:47:01;3.60;99.90
22145;DHT22;11238;48.730;11.566;2023-04-03T02:49:28;3.50;99.90
22145;DHT22;11238;48.730;11.566;2023-04-03T02:51:55;3.50;99.90
22145;DHT22;11238;48.730;11.566;2023-04-03T02:54:20;3.50;99.90
22145;DHT22;11238;48.730;11.566;2023-04-03T02:56:51;3.50;99.90
22145;DHT22;11238;48.730;11.566;2023-04-03T02:59:17;3.50;99.90
22145;DHT22;11238;48.730;11.566;2023-04-03T03:01:43;3.50;99.90
22145;DHT22;11238;48.730;11.566;2023-04-03T03:04:09;3.40;99.90
22145;DHT22;11238;48.730;11.566;2023-04-03T03:06:35;3.50;99.90
22145;DHT22;11238;48.730;11.566;2023-04-03T03:09:01;3.50;99.90
22145;DHT22;11238;48.730;11.566;2023-04-03T03:11:27;3.50;99.90
22145;DHT22;11238;48.730;11.566;2023-04-03T03:13:52;3.50;99.90
22145;DHT22;11238;48.730;11.566;2023-04-03T03:16:18;3.50;99.90
22145;DHT22;11238;48.730;11.566;2023-04-03T03:18:44;3.50;99.90
22145;DHT22;11238;48.730;11.566;2023-04-03T03:21:11;3.50;99.90
22145;DHT22;11238;48.730;11.566;2023-04-03T03:23:37;3.50;99.90
22145;DHT22;11238;48.730;11.566;2023-04-03T03:26:08;3.40;99.90
22145;DHT22;11238;48.730;11.566;2023-04-03T03:28:36;3.40;99.90
22145;DHT22;11238;48.730;11.566;2023-04-03T03:31:03;3.50;99.90
22145;DHT22;11238;48.730;11.566;2023-04-03T03:33:31;3.50;99.90
22145;DHT22;11238;48.730;11.566;2023-04-03T03:35:59;3.50;99.90
22145;DHT22;11238;48.730;11.566;2023-04-03T03:38:25;3.50;99.90
22145;DHT22;11238;48.730;11.566;2023-04-03T03:40:52;3.50;99.90
22145;DHT22;11238;48.730;11.566;2023-04-03T03:43:19;3.50;99.90
22145;DHT22;11238;48.730;11.566;2023-04-03T03:45:54;3.50;99.90
22145;DHT22;11238;48.730;11.566;2023-04-03T03:48:22;3.50;99.90
22145;DHT22;11238;48.730;11.566;2023-04-03T03:50:49;3.50;99.90
22145;DHT22;11238;48.730;11.566;2023-04-03T03:53:16;3.40;99.90
22145;DHT22;11238;48.730;11.566;2023-04-03T03:55:43;3.30;99.90
22145;DHT22;11238;48.730;11.566;2023-04-03T03:58:09;3.30;99.90
22145;DHT22;11238;48.730;11.566;2023-04-03T04:00:36;3.30;99.90
22145;DHT22;11238;48.730;11.566;2023-04-03T04:03:02;3.40;99.90
22145;DHT22;11238;48.730;11.566;2023-04-03T04:05:30;3.40;99.90
22145;DHT22;11238;48.730;11.566;2023-04-03T04:07:57;3.40;99.90
22145;DHT22;11238;48.730;11.566;2023-04-03T04:10:24;3.40;99.90
22145;DHT22;11238;48.730;11.566;2023-04-03T04:12:51;3.30;99.90
22145;DHT22;11238;48.730;11.566;2023-04-03T04:15:19;3.30;99.90
22145;DHT22;11238;48.730;11.566;2023-04-03T04:17:48;3.30;99.90
22145;DHT22;11238;48.730;11.566;2023-04-03T04:20:14;3.30;99.90
22145;DHT22;11238;48.730;11.566;2023-04-03T04:22:40;3.30;99.90
22145;DHT22;11238;48.730;11.566;2023-04-03T04:25:08;3.30;99.90
22145;DHT22;11238;48.730;11.566;2023-04-03T04:27:35;3.30;99.90
22145;DHT22;11238;48.730;11.566;2023-04-03T04:30:03;3.20;99.90
22145;DHT22;11238;48.730;11.566;2023-04-03T04:32:31;3.20;99.90
22145;DHT22;11238;48.730;11.566;2023-04-03T04:34:57;3.20;99.90
22145;DHT22;11238;48.730;11.566;2023-04-03T04:37:24;3.20;99.90
22145;DHT22;11238;48.730;11.566;2023-04-03T04:39:50;3.20;99.90
22145;DHT22;11238;48.730;11.566;2023-04-03T04:42:16;3.10;99.90
22145;DHT22;11238;48.730;11.566;2023-04-03T04:44:44;3.10;99.90
22145;DHT22;11238;48.730;11.566;2023-04-03T04:47:12;3.10;99.90
22145;DHT22;11238;48.730;11.566;2023-04-03T04:49:38;3.10;99.90
22145;DHT22;11238;48.730;11.566;2023-04-03T04:52:05;3.10;99.90
22145;DHT22;11238;48.730;11.566;2023-04-03T04:54:31;3.10;99.90
22145;DHT22;11238;48.730;11.566;2023-04-03T04:56:57;3.00;99.90
22145;DHT22;11238;48.730;11.566;2023-04-03T04:59:24;3.10;99.90
22145;DHT22;11238;48.730;11.566;2023-04-03T05:01:52;3.10;99.90
22145;DHT22;11238;48.730;11.566;2023-04-03T05:04:17;3.10;99.90
22145;DHT22;11238;48.730;11.566;2023-04-03T05:06:46;3.20;99.90
22145;DHT22;11238;48.730;11.566;2023-04-03T05:09:16;3.10;99.90
22145;DHT22;11238;48.730;11.566;2023-04-03T05:11:44;3.20;99.90
22145;DHT22;11238;48.730;11.566;2023-04-03T05:14:12;3.20;99.90
22145;DHT22;11238;48.730;11.566;2023-04-03T05:16:38;3.20;99.90
22145;DHT22;11238;48.730;11.566;2023-04-03T05:19:05;3.20;99.90
22145;DHT22;11238;48.730;11.566;2023-04-03T05:21:31;3.10;99.90
22145;DHT22;11238;48.730;11.566;2023-04-03T05:24:00;3.10;99.90
22145;DHT22;11238;48.730;11.566;2023-04-03T05:26:31;3.20;99.90
22145;DHT22;11238;48.730;11.566;2023-04-03T05:28:58;3.30;99.90
22145;DHT22;11238;48.730;11.566;2023-04-03T05:31:25;3.30;99.90
22145;DHT22;11238;48.730;11.566;2023-04-03T05:33:51;3.30;99.90
22145;DHT22;11238;48.730;11.566;2023-04-03T05:36:17;3.40;99.90
22145;DHT22;11238;48.730;11.566;2023-04-03T05:38:47;3.40;99.90
22145;DHT22;11238;48.730;11.566;2023-04-03T05:41:15;3.40;99.90
22145;DHT22;11238;48.730;11.566;2023-04-03T05:43:44;3.40;99.90
22145;DHT22;11238;48.730;11.566;2023-04-03T05:46:11;3.30;99.90
22145;DHT22;11238;48.730;11.566;2023-04-03T05:48:59;3.40;99.90
22145;DHT22;11238;48.730;11.566;2023-04-03T05:51:33;3.40;99.90
22145;DHT22;11238;48.730;11.566;2023-04-03T05:54:29;3.40;99.90
22145;DHT22;11238;48.730;11.566;2023-04-03T05:57:12;3.40;99.90
22145;DHT22;11238;48.730;11.566;2023-04-03T05:59:40;3.30;99.90
22145;DHT22;11238;48.730;11.566;2023-04-03T06:02:06;3.30;99.90
22145;DHT22;11238;48.730;11.566;2023-04-03T06:04:35;3.40;99.90
22145;DHT22;11238;48.730;11.566;2023-04-03T06:07:02;3.40;99.90
22145;DHT22;11238;48.730;11.566;2023-04-03T06:09:28;3.40;99.90
22145;DHT22;11238;48.730;11.566;2023-04-03T06:11:54;3.40;99.90
22145;DHT22;11238;48.730;11.566;2023-04-03T06:14:22;3.50;99.90
22145;DHT22;11238;48.730;11.566;2023-04-03T06:16:48;3.50;99.90
22145;DHT22;11238;48.730;11.566;2023-04-03T06:19:15;3.50;99.90
22145;DHT22;11238;48.730;11.566;2023-04-03T06:21:46;3.50;99.90
22145;DHT22;11238;48.730;11.566;2023-04-03T06:24:15;3.50;99.90
22145;DHT22;11238;48.730;11.566;2023-04-03T06:26:42;3.50;99.90
22145;DHT22;11238;48.730;11.566;2023-04-03T06:29:08;3.50;99.90
22145;DHT22;11238;48.730;11.566;2023-04-03T06:31:34;3.50;99.90
22145;DHT22;11238;48.730;11.566;2023-04-03T06:34:03;3.60;99.90
22145;DHT22;11238;48.730;11.566;2023-04-03T06:36:29;3.50;99.90
22145;DHT22;11238;48.730;11.566;2023-04-03T06:38:55;3.50;99.90
22145;DHT22;11238;48.730;11.566;2023-04-03T06:41:21;3.50;99.90
22145;DHT22;11238;48.730;11.566;2023-04-03T06:43:47;3.60;99.90
22145;DHT22;11238;48.730;11.566;2023-04-03T06:46:21;3.60;99.90
22145;DHT22;11238;48.730;11.566;2023-04-03T06:48:49;3.60;99.90
22145;DHT22;11238;48.730;11.566;2023-04-03T06:51:22;3.60;99.90
22145;DHT22;11238;48.730;11.566;2023-04-03T06:53:50;3.70;99.90
22145;DHT22;11238;48.730;11.566;2023-04-03T06:56:17;3.70;99.90
22145;DHT22;11238;48.730;11.566;2023-04-03T06:58:44;3.70;99.90
22145;DHT22;11238;48.730;11.566;2023-04-03T07:01:11;3.80;99.90
22145;DHT22;11238;48.730;11.566;2023-04-03T07:03:38;3.80;99.90
22145;DHT22;11238;48.730;11.566;2023-04-03T07:06:05;3.90;99.90
22145;DHT22;11238;48.730;11.566;2023-04-03T07:08:33;3.90;99.90
22145;DHT22;11238;48.730;11.566;2023-04-03T07:11:00;3.90;99.90
22145;DHT22;11238;48.730;11.566;2023-04-03T07:13:26;4.00;99.90
22145;DHT22;11238;48.730;11.566;2023-04-03T07:15:52;4.00;99.90
22145;DHT22;11238;48.730;11.566;2023-04-03T07:18:19;4.00;99.90
22145;DHT22;11238;48.730;11.566;2023-04-03T07:20:44;3.90;99.90
22145;DHT22;11238;48.730;11.566;2023-04-03T07:23:11;4.00;99.90
22145;DHT22;11238;48.730;11.566;2023-04-03T07:25:42;4.00;99.90
22145;DHT22;11238;48.730;11.566;2023-04-03T07:28:08;4.10;99.90
22145;DHT22;11238;48.730;11.566;2023-04-03T07:30:34;4.30;99.90
22145;DHT22;11238;48.730;11.566;2023-04-03T07:33:01;4.30;99.90
22145;DHT22;11238;48.730;11.566;2023-04-03T07:35:27;4.40;99.90
22145;DHT22;11238;48.730;11.566;2023-04-03T07:37:53;4.50;99.90
22145;DHT22;11238;48.730;11.566;2023-04-03T07:40:18;4.50;99.90
22145;DHT22;11238;48.730;11.566;2023-04-03T07:42:44;4.60;99.90
22145;DHT22;11238;48.730;11.566;2023-04-03T07:45:10;4.70;99.90
22145;DHT22;11238;48.730;11.566;2023-04-03T07:47:36;4.70;99.90
22145;DHT22;11238;48.730;11.566;2023-04-03T07:50:02;4.70;99.90
22145;DHT22;11238;48.730;11.566;2023-04-03T07:52:28;4.70;99.90
22145;DHT22;11238;48.730;11.566;2023-04-03T07:54:53;4.70;99.90
22145;DHT22;11238;48.730;11.566;2023-04-03T07:57:19;4.70;99.90
22145;DHT22;11238;48.730;11.566;2023-04-03T07:59:45;4.70;99.90
22145;DHT22;11238;48.730;11.566;2023-04-03T08:02:12;4.70;99.90
22145;DHT22;11238;48.730;11.566;2023-04-03T08:04:38;4.70;99.90
22145;DHT22;11238;48.730;11.566;2023-04-03T08:07:04;4.70;99.90
22145;DHT22;11238;48.730;11.566;2023-04-03T08:09:30;4.70;99.90
22145;DHT22;11238;48.730;11.566;2023-04-03T08:11:58;4.80;99.90
22145;DHT22;11238;48.730;11.566;2023-04-03T08:14:24;4.80;99.90
22145;DHT22;11238;48.730;11.566;2023-04-03T08:16:50;4.90;99.90
22145;DHT22;11238;48.730;11.566;2023-04-03T08:19:16;5.00;99.90
22145;DHT22;11238;48.730;11.566;2023-04-03T08:21:44;5.10;99.90
22145;DHT22;11238;48.730;11.566;2023-04-03T08:24:11;5.10;99.90
22145;DHT22;11238;48.730;11.566;2023-04-03T08:26:37;5.20;99.90
22145;DHT22;11238;48.730;11.566;2023-04-03T08:29:04;5.30;99.90
22145;DHT22;11238;48.730;11.566;2023-04-03T08:31:30;5.30;99.90
22145;DHT22;11238;48.730;11.566;2023-04-03T08:33:57;5.30;99.90
22145;DHT22;11238;48.730;11.566;2023-04-03T08:36:28;5.30;99.90
22145;DHT22;11238;48.730;11.566;2023-04-03T08:38:55;5.40;99.90
22145;DHT22;11238;48.730;11.566;2023-04-03T08:41:32;5.40;99.90
22145;DHT22;11238;48.730;11.566;2023-04-03T08:47:04;5.60;99.90
22145;DHT22;11238;48.730;11.566;2023-04-03T08:49:37;5.60;99.90
22145;DHT22;11238;48.730;11.566;2023-04-03T08:52:10;5.60;99.90
22145;DHT22;11238;48.730;11.566;2023-04-03T08:54:51;5.60;99.90
22145;DHT22;11238;48.730;11.566;2023-04-03T08:57:35;5.70;99.90
22145;DHT22;11238;48.730;11.566;2023-04-03T09:00:24;5.80;99.90
22145;DHT22;11238;48.730;11.566;2023-04-03T09:02:55;5.70;99.90
22145;DHT22;11238;48.730;11.566;2023-04-03T09:05:45;5.70;99.90
22145;DHT22;11238;48.730;11.566;2023-04-03T09:08:26;5.70;99.90
22145;DHT22;11238;48.730;11.566;2023-04-03T09:13:57;5.50;99.50
22145;DHT22;11238;48.730;11.566;2023-04-03T09:19:24;5.50;99.20
22145;DHT22;11238;48.730;11.566;2023-04-03T09:21:53;5.50;99.30
22145;DHT22;11238;48.730;11.566;2023-04-03T09:24:22;5.60;99.40
22145;DHT22;11238;48.730;11.566;2023-04-03T09:26:56;5.60;98.30
22145;DHT22;11238;48.730;11.566;2023-04-03T09:29:25;5.60;98.60
22145;DHT22;11238;48.730;11.566;2023-04-03T09:32:01;5.70;98.40
22145;DHT22;11238;48.730;11.566;2023-04-03T09:34:32;5.70;98.30
22145;DHT22;11238;48.730;11.566;2023-04-03T09:37:02;5.80;97.20
22145;DHT22;11238;48.730;11.566;2023-04-03T09:39:47;5.80;97.10
22145;DHT22;11238;48.730;11.566;2023-04-03T09:42:20;5.80;96.60
22145;DHT22;11238;48.730;11.566;2023-04-03T09:44:56;5.80;95.70
22145;DHT22;11238;48.730;11.566;2023-04-03T09:47:31;5.90;95.90
22145;DHT22;11238;48.730;11.566;2023-04-03T09:50:19;5.90;94.80
22145;DHT22;11238;48.730;11.566;2023-04-03T09:52:48;5.90;94.00
22145;DHT22;11238;48.730;11.566;2023-04-03T09:55:41;5.90;94.30
22145;DHT22;11238;48.730;11.566;2023-04-03T09:58:03;6.00;94.50
22145;DHT22;11238;48.730;11.566;2023-04-03T10:00:36;6.00;94.00
22145;DHT22;11238;48.730;11.566;2023-04-03T10:03:04;6.00;94.40
22145;DHT22;11238;48.730;11.566;2023-04-03T10:05:41;6.00;93.50
22145;DHT22;11238;48.730;11.566;2023-04-03T10:10:40;6.10;93.70
22145;DHT22;11238;48.730;11.566;2023-04-03T10:13:18;6.10;93.30
22145;DHT22;11238;48.730;11.566;2023-04-03T10:16:17;6.10;92.50
22145;DHT22;11238;48.730;11.566;2023-04-03T10:21:57;6.30;93.00
22145;DHT22;11238;48.730;11.566;2023-04-03T10:24:30;6.40;91.60
22145;DHT22;11238;48.730;11.566;2023-04-03T10:27:16;6.50;91.50
22145;DHT22;11238;48.730;11.566;2023-04-03T10:30:21;6.70;92.30
22145;DHT22;11238;48.730;11.566;2023-04-03T10:36:16;7.30;91.90
22145;DHT22;11238;48.730;11.566;2023-04-03T10:47:24;8.90;86.10
22145;DHT22;11238;48.730;11.566;2023-04-03T10:50:02;8.90;84.10
22145;DHT22;11238;48.730;11.566;2023-04-03T10:52:38;8.40;81.90
22145;DHT22;11238;48.730;11.566;2023-04-03T10:55:10;8.20;83.60
22145;DHT22;11238;48.730;11.566;2023-04-03T10:57:40;8.30;86.40
22145;DHT22;11238;48.730;11.566;2023-04-03T11:00:16;8.30;83.40
22145;DHT22;11238;48.730;11.566;2023-04-03T11:03:11;8.00;81.60
22145;DHT22;11238;48.730;11.566;2023-04-03T11:05:43;7.80;82.70
22145;DHT22;11238;48.730;11.566;2023-04-03T11:08:16;7.50;80.00
22145;DHT22;11238;48.730;11.566;2023-04-03T11:10:48;7.50;82.80
22145;DHT22;11238;48.730;11.566;2023-04-03T11:13:21;7.40;81.20
22145;DHT22;11238;48.730;11.566;2023-04-03T11:15:49;7.40;82.20
22145;DHT22;11238;48.730;11.566;2023-04-03T11:18:43;7.30;80.10
22145;DHT22;11238;48.730;11.566;2023-04-03T11:21:37;7.10;80.10
22145;DHT22;11238;48.730;11.566;2023-04-03T11:24:05;7.30;80.50
22145;DHT22;11238;48.730;11.566;2023-04-03T11:26:38;7.30;78.30
22145;DHT22;11238;48.730;11.566;2023-04-03T11:29:13;7.30;78.20
22145;DHT22;11238;48.730;11.566;2023-04-03T11:34:52;7.30;76.80
22145;DHT22;11238;48.730;11.566;2023-04-03T11:37:44;7.40;78.70
22145;DHT22;11238;48.730;11.566;2023-04-03T11:40:26;7.70;77.00
22145;DHT22;11238;48.730;11.566;2023-04-03T11:43:07;8.00;79.60
22145;DHT22;11238;48.730;11.566;2023-04-03T11:53:40;9.10;74.30
22145;DHT22;11238;48.730;11.566;2023-04-03T12:01:45;10.00;71.70
22145;DHT22;11238;48.730;11.566;2023-04-03T12:04:13;10.20;71.70
22145;DHT22;11238;48.730;11.566;2023-04-03T12:06:41;10.40;67.70
22145;DHT22;11238;48.730;11.566;2023-04-03T12:11:49;10.60;66.60
22145;DHT22;11238;48.730;11.566;2023-04-03T12:14:15;10.50;66.40
22145;DHT22;11238;48.730;11.566;2023-04-03T12:16:45;10.10;63.20
22145;DHT22;11238;48.730;11.566;2023-04-03T12:32:17;9.20;64.30
22145;DHT22;11238;48.730;11.566;2023-04-03T12:48:57;8.50;68.30
22145;DHT22;11238;48.730;11.566;2023-04-03T12:51:44;8.90;67.50
22145;DHT22;11238;48.730;11.566;2023-04-03T12:54:30;8.80;67.90
22145;DHT22;11238;48.730;11.566;2023-04-03T12:57:26;8.80;66.50
22145;DHT22;11238;48.730;11.566;2023-04-03T12:59:53;9.00;66.60
22145;DHT22;11238;48.730;11.566;2023-04-03T13:02:31;9.40;65.30
22145;DHT22;11238;48.730;11.566;2023-04-03T13:05:06;9.50;64.30
22145;DHT22;11238;48.730;11.566;2023-04-03T13:07:35;9.30;63.60
22145;DHT22;11238;48.730;11.566;2023-04-03T13:10:15;9.30;62.90
22145;DHT22;11238;48.730;11.566;2023-04-03T13:12:56;9.30;65.00
22145;DHT22;11238;48.730;11.566;2023-04-03T13:15:30;9.90;65.00
22145;DHT22;11238;48.730;11.566;2023-04-03T13:18:05;10.00;63.10
22145;DHT22;11238;48.730;11.566;2023-04-03T13:20:35;9.90;62.50
22145;DHT22;11238;48.730;11.566;2023-04-03T13:23:05;9.80;62.40
22145;DHT22;11238;48.730;11.566;2023-04-03T13:25:42;9.60;61.50
22145;DHT22;11238;48.730;11.566;2023-04-03T13:28:12;9.30;60.30
22145;DHT22;11238;48.730;11.566;2023-04-03T13:30:40;9.10;60.90
22145;DHT22;11238;48.730;11.566;2023-04-03T13:33:21;9.50;62.80
22145;DHT22;11238;48.730;11.566;2023-04-03T13:35:55;9.80;60.70
22145;DHT22;11238;48.730;11.566;2023-04-03T13:38:26;10.30;61.40
22145;DHT22;11238;48.730;11.566;2023-04-03T13:40:55;10.40;58.80
22145;DHT22;11238;48.730;11.566;2023-04-03T13:43:28;10.50;58.50
22145;DHT22;11238;48.730;11.566;2023-04-03T13:48:41;10.80;58.00
22145;DHT22;11238;48.730;11.566;2023-04-03T13:53:51;11.10;57.80
22145;DHT22;11238;48.730;11.566;2023-04-03T13:56:27;11.40;60.70
22145;DHT22;11238;48.730;11.566;2023-04-03T14:01:55;11.80;56.30
22145;DHT22;11238;48.730;11.566;2023-04-03T14:07:12;11.00;56.00
22145;DHT22;11238;48.730;11.566;2023-04-03T14:09:38;11.30;57.70
22145;DHT22;11238;48.730;11.566;2023-04-03T14:12:27;11.50;56.90
22145;DHT22;11238;48.730;11.566;2023-04-03T14:14:55;11.40;56.00
22145;DHT22;11238;48.730;11.566;2023-04-03T14:17:23;10.90;56.20
22145;DHT22;11238;48.730;11.566;2023-04-03T14:19:51;10.90;57.00
22145;DHT22;11238;48.730;11.566;2023-04-03T14:22:23;10.90;57.70
22145;DHT22;11238;48.730;11.566;2023-04-03T14:24:51;10.70;56.70
22145;DHT22;11238;48.730;11.566;2023-04-03T14:27:19;10.80;57.10
22145;DHT22;11238;48.730;11.566;2023-04-03T14:29:47;10.80;57.10
22145;DHT22;11238;48.730;11.566;2023-04-03T14:32:15;11.00;57.30
22145;DHT22;11238;48.730;11.566;2023-04-03T14:34:42;10.90;56.20
22145;DHT22;11238;48.730;11.566;2023-04-03T14:37:21;10.80;53.80
22145;DHT22;11238;48.730;11.566;2023-04-03T14:39:48;11.10;55.10
22145;DHT22;11238;48.730;11.566;2023-04-03T14:42:20;11.20;55.30
22145;DHT22;11238;48.730;11.566;2023-04-03T14:44:46;11.60;56.70
22145;DHT22;11238;48.730;11.566;2023-04-03T14:47:15;11.70;54.30
22145;DHT22;11238;48.730;11.566;2023-04-03T14:49:41;11.40;54.50
22145;DHT22;11238;48.730;11.566;2023-04-03T14:52:30;11.10;54.00
22145;DHT22;11238;48.730;11.566;2023-04-03T14:54:57;10.70;53.70
22145;DHT22;11238;48.730;11.566;2023-04-03T14:57:28;10.20;55.00
22145;DHT22;11238;48.730;11.566;2023-04-03T15:00:21;9.80;55.00
22145;DHT22;11238;48.730;11.566;2023-04-03T15:02:51;9.70;57.10
22145;DHT22;11238;48.730;11.566;2023-04-03T15:05:17;9.60;58.50
22145;DHT22;11238;48.730;11.566;2023-04-03T15:07:52;9.50;57.90
22145;DHT22;11238;48.730;11.566;2023-04-03T15:10:22;9.50;58.40
22145;DHT22;11238;48.730;11.566;2023-04-03T15:12:49;9.70;56.90
22145;DHT22;11238;48.730;11.566;2023-04-03T15:15:17;9.90;57.70
22145;DHT22;11238;48.730;11.566;2023-04-03T15:17:44;9.50;57.10
22145;DHT22;11238;48.730;11.566;2023-04-03T15:20:16;9.60;56.70
22145;DHT22;11238;48.730;11.566;2023-04-03T15:22:42;9.60;55.90
22145;DHT22;11238;48.730;11.566;2023-04-03T15:25:11;9.50;56.90
22145;DHT22;11238;48.730;11.566;2023-04-03T15:27:37;9.40;56.80
22145;DHT22;11238;48.730;11.566;2023-04-03T15:30:05;9.40;56.50
22145;DHT22;11238;48.730;11.566;2023-04-03T15:32:32;9.50;57.10
22145;DHT22;11238;48.730;11.566;2023-04-03T15:34:59;9.40;57.20
22145;DHT22;11238;48.730;11.566;2023-04-03T15:37:25;9.30;56.80
22145;DHT22;11238;48.730;11.566;2023-04-03T15:39:51;8.70;57.30
22145;DHT22;11238;48.730;11.566;2023-04-03T15:42:20;8.70;57.50
22145;DHT22;11238;48.730;11.566;2023-04-03T15:44:45;8.70;57.90
22145;DHT22;11238;48.730;11.566;2023-04-03T15:47:33;8.80;58.50
22145;DHT22;11238;48.730;11.566;2023-04-03T15:49:59;8.70;58.70
22145;DHT22;11238;48.730;11.566;2023-04-03T15:52:25;8.80;59.40
22145;DHT22;11238;48.730;11.566;2023-04-03T15:54:51;8.90;59.20
22145;DHT22;11238;48.730;11.566;2023-04-03T15:57:38;9.10;59.30
22145;DHT22;11238;48.730;11.566;2023-04-03T16:00:05;9.00;59.70
22145;DHT22;11238;48.730;11.566;2023-04-03T16:02:33;8.70;59.30
22145;DHT22;11238;48.730;11.566;2023-04-03T16:04:59;8.40;58.50
22145;DHT22;11238;48.730;11.566;2023-04-03T16:07:44;8.20;59.60
22145;DHT22;11238;48.730;11.566;2023-04-03T16:10:12;8.20;60.70
22145;DHT22;11238;48.730;11.566;2023-04-03T16:12:38;8.20;61.30
22145;DHT22;11238;48.730;11.566;2023-04-03T16:15:05;8.10;61.30
22145;DHT22;11238;48.730;11.566;2023-04-03T16:17:32;8.00;61.60
22145;DHT22;11238;48.730;11.566;2023-04-03T16:19:58;7.90;62.90
22145;DHT22;11238;48.730;11.566;2023-04-03T16:22:26;7.80;61.70
22145;DHT22;11238;48.730;11.566;2023-04-03T16:24:53;7.80;62.90
22145;DHT22;11238;48.730;11.566;2023-04-03T16:27:20;7.70;63.30
22145;DHT22;11238;48.730;11.566;2023-04-03T16:30:05;7.60;61.60
22145;DHT22;11238;48.730;11.566;2023-04-03T16:32:33;7.40;63.10
22145;DHT22;11238;48.730;11.566;2023-04-03T16:35:00;7.20;64.30
22145;DHT22;11238;48.730;11.566;2023-04-03T16:37:26;7.20;65.40
22145;DHT22;11238;48.730;11.566;2023-04-03T16:39:52;7.10;64.60
22145;DHT22;11238;48.730;11.566;2023-04-03T16:42:17;7.10;64.40
22145;DHT22;11238;48.730;11.566;2023-04-03T16:44:43;7.00;65.70
22145;DHT22;11238;48.730;11.566;2023-04-03T16:47:09;7.00;65.40
22145;DHT22;11238;48.730;11.566;2023-04-03T16:49:36;6.90;65.00
22145;DHT22;11238;48.730;11.566;2023-04-03T16:52:03;6.80;66.00
22145;DHT22;11238;48.730;11.566;2023-04-03T16:54:30;6.90;67.00
22145;DHT22;11238;48.730;11.566;2023-04-03T16:56:56;6.70;66.90
22145;DHT22;11238;48.730;11.566;2023-04-03T16:59:22;6.60;66.00
22145;DHT22;11238;48.730;11.566;2023-04-03T17:01:49;6.50;67.20
22145;DHT22;11238;48.730;11.566;2023-04-03T17:04:15;6.60;68.50
22145;DHT22;11238;48.730;11.566;2023-04-03T17:07:02;6.50;67.40
22145;DHT22;11238;48.730;11.566;2023-04-03T17:09:33;6.40;66.70
22145;DHT22;11238;48.730;11.566;2023-04-03T17:11:58;6.30;67.40
22145;DHT22;11238;48.730;11.566;2023-04-03T17:14:24;6.20;67.60
22145;DHT22;11238;48.730;11.566;2023-04-03T17:16:51;6.10;68.10
22145;DHT22;11238;48.730;11.566;2023-04-03T17:19:17;6.10;67.70
22145;DHT22;11238;48.730;11.566;2023-04-03T17:21:44;5.90;68.30